Time;durP1;ratioP1;P1;durP2;ratioP2;P2;SDS_P1;SDS_P2;PMS_P1;PMS_P2;Temp;Humidity;BMP_temperature;BMP_pressure;BME280_temperature;BME280_humidity;BME280_pressure;Samples;Min_cycle;Max_cycle;Signal;HPM_P1;HPM_P2
2022/09/29 00:01:51;;;;;;;1.33;0.83;;;;;;;8.81;100.00;94736.22;5071419;28;20216;-76
2022/09/29 00:04:20;;;;;;;0.90;0.83;;;;;;;8.79;100.00;94735.66;5068498;28;20198;-75
2022/09/29 00:06:47;;;;;;;0.87;0.87;;;;;;;8.80;100.00;94734.59;5072680;28;20186;-75
2022/09/29 00:09:14;;;;;;;1.77;0.90;;;;;;;8.77;100.00;94737.78;5069559;28;20189;-76
2022/09/29 00:11:42;;;;;;;1.10;1.00;;;;;;;8.84;100.00;94735.72;5073303;28;20210;-75
2022/09/29 00:14:09;;;;;;;1.10;1.00;;;;;;;8.75;100.00;94721.13;5072732;28;20218;-76
2022/09/29 00:16:37;;;;;;;0.97;0.97;;;;;;;8.72;100.00;94721.63;5069817;28;20221;-75
2022/09/29 00:19:04;;;;;;;1.30;1.20;;;;;;;8.71;100.00;94746.91;5068778;28;20210;-75
2022/09/29 00:21:33;;;;;;;1.40;1.17;;;;;;;8.76;100.00;94743.47;5070889;28;20262;-76
2022/09/29 00:24:01;;;;;;;1.17;1.00;;;;;;;8.82;100.00;94737.84;5070669;28;20198;-76
2022/09/29 00:26:28;;;;;;;1.20;1.10;;;;;;;8.82;100.00;94742.41;5070466;28;20207;-76
2022/09/29 00:28:59;;;;;;;1.00;0.90;;;;;;;8.67;100.00;94726.97;5070577;28;20490;-75
2022/09/29 00:31:28;;;;;;;1.20;1.10;;;;;;;8.73;100.00;94736.69;5084438;28;20198;-76
2022/09/29 00:33:55;;;;;;;1.20;1.10;;;;;;;8.75;100.00;94726.50;5073977;28;20210;-78
2022/09/29 00:36:23;;;;;;;1.30;1.20;;;;;;;8.63;100.00;94712.41;5070444;28;20218;-75
2022/09/29 00:38:52;;;;;;;2.47;1.90;;;;;;;8.57;100.00;94703.50;5072378;28;20253;-76
2022/09/29 00:41:23;;;;;;;1.80;1.60;;;;;;;8.63;100.00;94702.47;5070048;28;20274;-78
2022/09/29 00:43:54;;;;;;;2.37;1.80;;;;;;;8.59;100.00;94706.72;5074282;28;20266;-76
2022/09/29 00:46:28;;;;;;;1.93;1.73;;;;;;;8.75;100.00;94731.88;5071260;28;20209;-78
2022/09/29 00:48:58;;;;;;;2.60;1.83;;;;;;;8.78;100.00;94717.88;5069719;28;20198;-75
2022/09/29 00:51:27;;;;;;;1.70;1.60;;;;;;;8.83;100.00;94714.44;5067565;28;20187;-78
2022/09/29 00:53:57;;;;;;;2.73;1.33;;;;;;;8.82;100.00;94712.81;5071641;28;20186;-76
2022/09/29 00:56:25;;;;;;;2.43;1.70;;;;;;;8.81;100.00;94720.06;5066524;28;20352;-75
2022/09/29 00:58:56;;;;;;;2.20;1.67;;;;;;;8.83;100.00;94728.72;5075021;28;20178;-76
2022/09/29 01:01:25;;;;;;;2.40;1.90;;;;;;;8.81;100.00;94719.25;5068938;28;20197;-77
2022/09/29 01:03:58;;;;;;;2.10;1.90;;;;;;;8.88;100.00;94722.53;5066466;28;20226;-76
2022/09/29 01:06:29;;;;;;;4.07;2.13;;;;;;;8.82;100.00;94721.69;5049603;28;20198;-76
2022/09/29 01:09:01;;;;;;;2.63;2.00;;;;;;;8.81;100.00;94720.06;5044513;28;20309;-76
2022/09/29 01:11:30;;;;;;;2.63;2.23;;;;;;;8.93;100.00;94730.66;5043102;28;20236;-76
2022/09/29 01:14:02;;;;;;;2.70;2.50;;;;;;;8.94;100.00;94734.94;5038962;28;20248;-76
2022/09/29 01:16:29;;;;;;;2.73;2.53;;;;;;;8.95;100.00;94733.88;5047686;28;20242;-76
2022/09/29 01:18:58;;;;;;;2.77;2.40;;;;;;;8.97;100.00;94735.25;5043592;28;20222;-76
2022/09/29 01:21:34;;;;;;;3.87;2.50;;;;;;;8.91;100.00;94730.91;5045354;28;20206;-76
2022/09/29 01:24:35;;;;;;;2.83;2.50;;;;;;;8.93;100.00;94725.28;5040614;28;20214;-77
2022/09/29 01:27:16;;;;;;;2.53;2.30;;;;;;;8.97;100.00;94737.94;5037333;28;20230;-76
2022/09/29 01:30:10;;;;;;;3.27;2.47;;;;;;;8.94;100.00;94730.38;5052960;28;20202;-76
2022/09/29 01:32:56;;;;;;;3.57;2.40;;;;;;;8.86;100.00;94724.66;5044473;28;20306;-76
2022/09/29 01:35:30;;;;;;;2.67;2.47;;;;;;;8.79;100.00;94716.81;5042515;28;20249;-76
2022/09/29 01:38:14;;;;;;;4.23;2.77;;;;;;;8.86;100.00;94712.03;5047248;28;20207;-76
2022/09/29 01:40:50;;;;;;;3.37;2.70;;;;;;;8.90;100.00;94717.72;5032101;28;20198;-76
2022/09/29 01:43:21;;;;;;;2.77;2.50;;;;;;;8.89;100.00;94708.00;5041476;28;20271;-76
2022/09/29 01:45:57;;;;;;;2.20;2.00;;;;;;;8.85;100.00;94709.59;5037956;28;20215;-76
2022/09/29 01:48:32;;;;;;;2.33;2.13;;;;;;;8.81;100.00;94709.31;5042200;28;20210;-76
2022/09/29 01:51:04;;;;;;;3.27;2.07;;;;;;;8.81;100.00;94706.63;5041463;28;20296;-76
2022/09/29 01:53:37;;;;;;;3.03;2.30;;;;;;;8.80;100.00;94702.31;5043804;28;20215;-76
2022/09/29 01:56:09;;;;;;;2.83;2.27;;;;;;;8.72;100.00;94698.22;5044806;28;20226;-76
2022/09/29 01:58:42;;;;;;;2.83;2.20;;;;;;;8.72;100.00;94692.84;5062583;28;20214;-76
2022/09/29 02:01:13;;;;;;;3.00;2.40;;;;;;;8.79;100.00;94691.78;5039198;28;20237;-74
2022/09/29 02:03:46;;;;;;;3.20;2.90;;;;;;;8.77;100.00;94685.84;5039464;28;20215;-73
2022/09/29 02:06:17;;;;;;;3.33;2.77;;;;;;;8.78;100.00;94680.22;5036935;28;20202;-73
2022/09/29 02:08:50;;;;;;;3.10;2.80;;;;;;;8.82;100.00;94678.66;5045646;28;20205;-73
2022/09/29 02:11:18;;;;;;;3.53;2.90;;;;;;;8.85;100.00;94680.78;5041320;28;20213;-73
2022/09/29 02:13:50;;;;;;;3.47;3.13;;;;;;;8.85;100.00;94680.78;5045707;28;20226;-72
2022/09/29 02:16:21;;;;;;;3.10;2.80;;;;;;;8.85;100.00;94672.72;5032543;28;20237;-73
2022/09/29 02:18:53;;;;;;;3.13;2.83;;;;;;;8.86;100.00;94681.59;5037768;28;20211;-73
2022/09/29 02:21:22;;;;;;;3.53;2.67;;;;;;;8.84;100.00;94681.91;5040643;28;20216;-73
2022/09/29 02:23:49;;;;;;;2.63;2.30;;;;;;;8.94;100.00;94681.94;5042230;28;20297;-72
2022/09/29 02:26:19;;;;;;;2.47;2.00;;;;;;;8.90;100.00;94677.34;5043571;28;20251;-74
2022/09/29 02:28:47;;;;;;;2.00;1.87;;;;;;;8.86;100.00;94676.22;5046133;28;20205;-74
2022/09/29 02:31:14;;;;;;;2.13;1.93;;;;;;;8.81;100.00;94679.72;5044483;28;20214;-73
2022/09/29 02:33:41;;;;;;;2.73;2.40;;;;;;;8.75;100.00;94680.75;5041670;28;20217;-72
2022/09/29 02:36:21;;;;;;;2.50;2.23;;;;;;;8.79;100.00;94692.59;5040993;28;20245;-74
2022/09/29 02:38:54;;;;;;;2.53;2.30;;;;;;;8.81;100.00;94677.03;5056775;28;20214;-74
2022/09/29 02:41:33;;;;;;;3.50;2.00;;;;;;;8.73;100.00;94674.81;5043178;28;20205;-73
2022/09/29 02:44:24;;;;;;;2.70;1.97;;;;;;;8.77;100.00;94692.03;5044955;28;20206;-73
2022/09/29 02:47:10;;;;;;;3.17;2.20;;;;;;;8.75;100.00;94680.75;5040733;28;20206;-73
2022/09/29 02:49:57;;;;;;;2.00;1.80;;;;;;;8.84;100.00;94670.31;5043371;28;20207;-73
2022/09/29 02:52:34;;;;;;;2.10;1.90;;;;;;;8.82;100.00;94661.69;5035642;28;20340;-72
2022/09/29 02:55:08;;;;;;;2.20;1.90;;;;;;;8.81;100.00;94650.09;5039429;28;20215;-72
2022/09/29 02:57:41;;;;;;;2.10;1.73;;;;;;;8.74;100.00;94660.28;5042959;28;20223;-72
2022/09/29 03:00:12;;;;;;;2.13;1.90;;;;;;;8.80;100.00;94659.25;5042269;28;20206;-73
2022/09/29 03:02:40;;;;;;;2.07;1.90;;;;;;;8.82;100.00;94657.13;5041892;28;20202;-72
2022/09/29 03:05:10;;;;;;;1.53;1.43;;;;;;;8.80;100.00;94651.19;5040540;28;20241;-73
2022/09/29 03:07:39;;;;;;;1.77;1.60;;;;;;;8.80;100.00;94659.25;5038836;28;20210;-73
2022/09/29 03:10:09;;;;;;;1.40;1.30;;;;;;;8.77;100.00;94651.69;5039692;28;20221;-73
2022/09/29 03:12:36;;;;;;;1.40;1.30;;;;;;;8.80;100.00;94653.88;5041102;28;20233;-72
2022/09/29 03:15:04;;;;;;;1.50;1.40;;;;;;;8.86;100.00;94662.78;5043606;28;20238;-73
2022/09/29 03:17:31;;;;;;;1.37;1.27;;;;;;;8.88;100.00;94657.94;5041493;28;20245;-73
2022/09/29 03:19:58;;;;;;;2.20;2.00;;;;;;;8.86;100.00;94647.44;5041999;28;20198;-74
2022/09/29 03:22:26;;;;;;;2.80;1.60;;;;;;;8.81;100.00;94650.09;5042016;28;20206;-73
2022/09/29 03:24:54;;;;;;;3.07;2.13;;;;;;;8.80;100.00;94655.75;5041141;28;20243;-73
2022/09/29 03:27:21;;;;;;;1.93;1.80;;;;;;;8.82;100.00;94659.00;5043101;28;20480;-73
2022/09/29 03:29:49;;;;;;;1.73;1.50;;;;;;;8.84;100.00;94657.66;5044667;28;20198;-73
2022/09/29 03:32:16;;;;;;;1.73;1.60;;;;;;;8.81;100.00;94646.59;5047703;28;20202;-73
2022/09/29 03:34:43;;;;;;;2.33;1.50;;;;;;;8.80;100.00;94639.59;5034825;28;20202;-73
2022/09/29 03:37:10;;;;;;;2.47;1.63;;;;;;;8.80;100.00;94621.56;5038052;28;20248;-73
2022/09/29 03:39:37;;;;;;;3.00;1.50;;;;;;;8.78;100.00;94623.72;5040249;28;20194;-73
2022/09/29 03:42:05;;;;;;;2.27;1.40;;;;;;;8.78;100.00;94625.59;5035550;28;20214;-73
2022/09/29 03:44:32;;;;;;;2.23;1.90;;;;;;;8.79;100.00;94624.53;5037301;28;20228;-73
2022/09/29 03:46:59;;;;;;;3.13;1.83;;;;;;;8.77;100.00;94615.88;5039285;28;20242;-73
2022/09/29 03:49:26;;;;;;;2.43;1.73;;;;;;;8.76;100.00;94609.72;5044823;28;20206;-75
2022/09/29 03:51:53;;;;;;;2.37;2.07;;;;;;;8.78;100.00;94626.41;5042670;28;20203;-73
2022/09/29 03:54:23;;;;;;;4.63;2.90;;;;;;;8.72;100.00;94635.53;5041794;28;20221;-73
2022/09/29 03:56:50;;;;;;;4.80;2.50;;;;;;;8.73;100.00;94639.84;5037955;28;20229;-75
2022/09/29 03:59:18;;;;;;;2.30;2.10;;;;;;;8.74;100.00;94622.63;5040642;28;20293;-75
2022/09/29 04:01:45;;;;;;;2.40;2.20;;;;;;;8.73;100.00;94621.81;5042897;28;20214;-73
2022/09/29 04:04:12;;;;;;;2.63;2.43;;;;;;;8.75;100.00;94626.13;5045988;28;20206;-73
2022/09/29 04:06:39;;;;;;;2.70;2.20;;;;;;;8.75;100.00;94616.19;5041399;28;20404;-74
2022/09/29 04:09:06;;;;;;;2.27;1.93;;;;;;;8.76;100.00;94607.03;5037721;28;20198;-73
2022/09/29 04:11:33;;;;;;;2.77;2.00;;;;;;;8.69;100.00;94612.63;5042103;28;20206;-74
2022/09/29 04:14:00;;;;;;;2.83;2.20;;;;;;;8.68;100.00;94626.34;5044646;28;20244;-73
2022/09/29 04:16:29;;;;;;;3.33;2.40;;;;;;;8.65;100.00;94625.00;5036772;28;20276;-73
2022/09/29 04:18:56;;;;;;;2.80;2.60;;;;;;;8.66;100.00;94625.81;5040835;28;20210;-74
2022/09/29 04:21:22;;;;;;;3.10;2.40;;;;;;;8.62;100.00;94614.75;5036852;28;20282;-73
2022/09/29 04:23:49;;;;;;;3.70;2.67;;;;;;;8.76;100.00;94638.50;5037268;28;20202;-73
2022/09/29 04:26:19;;;;;;;7.47;6.27;;;;;;;8.77;100.00;94640.91;5046093;28;20206;-75
2022/09/29 04:28:47;;;;;;;21.43;17.07;;;;;;;8.73;100.00;94642.53;5039664;28;20265;-73
2022/09/29 04:31:14;;;;;;;10.70;7.77;;;;;;;8.76;100.00;94644.72;5027346;28;20302;-73
2022/09/29 04:33:42;;;;;;;6.00;4.30;;;;;;;8.73;100.00;94647.91;5043584;28;20202;-72
2022/09/29 04:36:09;;;;;;;3.27;2.97;;;;;;;8.65;100.00;94632.25;5034157;28;20332;-72
2022/09/29 04:38:36;;;;;;;3.63;3.33;;;;;;;8.69;100.00;94644.09;5047587;28;20199;-72
2022/09/29 04:41:03;;;;;;;4.73;4.23;;;;;;;8.71;100.00;94644.66;5045151;28;20210;-73
2022/09/29 04:43:30;;;;;;;6.40;3.13;;;;;;;8.75;100.00;94647.66;5044020;28;20301;-72
2022/09/29 04:46:06;;;;;;;3.37;3.07;;;;;;;8.85;100.00;94650.38;5049902;28;20194;-72
2022/09/29 04:48:33;;;;;;;5.20;4.70;;;;;;;8.87;100.00;94653.63;5046827;28;20224;-73
2022/09/29 04:51:02;;;;;;;6.57;5.50;;;;;;;8.88;100.00;94661.44;5045610;28;20275;-73
2022/09/29 04:53:29;;;;;;;4.70;3.90;;;;;;;8.90;100.00;94663.88;5048321;28;20210;-73
2022/09/29 04:55:56;;;;;;;3.83;3.43;;;;;;;8.82;100.00;94657.13;5047316;28;20256;-74
2022/09/29 04:58:23;;;;;;;3.80;3.40;;;;;;;8.77;100.00;94657.06;5046700;28;20228;-72
2022/09/29 05:00:50;;;;;;;5.90;3.07;;;;;;;8.81;100.00;94660.88;5044896;28;20210;-73
2022/09/29 05:03:17;;;;;;;2.97;2.67;;;;;;;8.87;100.00;94667.09;5042357;28;20207;-74
2022/09/29 05:05:44;;;;;;;2.33;2.13;;;;;;;8.88;100.00;94664.13;5041411;28;20198;-73
2022/09/29 05:08:12;;;;;;;2.07;1.87;;;;;;;8.87;100.00;94664.38;5047715;28;20210;-73
2022/09/29 05:10:39;;;;;;;1.63;1.53;;;;;;;8.79;100.00;94660.31;5044969;28;20214;-72
2022/09/29 05:13:06;;;;;;;2.07;1.27;;;;;;;8.85;100.00;94666.53;5043790;28;20203;-73
2022/09/29 05:15:33;;;;;;;1.63;1.50;;;;;;;8.82;100.00;94661.69;5044675;28;20230;-73
2022/09/29 05:18:03;;;;;;;3.33;2.50;;;;;;;8.88;100.00;94676.78;5045678;28;20225;-74
2022/09/29 05:20:30;;;;;;;4.97;2.80;;;;;;;8.93;100.00;94680.31;5049940;28;20210;-73
2022/09/29 05:22:58;;;;;;;6.07;3.87;;;;;;;8.92;100.00;94681.41;5041524;28;20213;-73
2022/09/29 05:25:27;;;;;;;4.00;2.73;;;;;;;8.92;100.00;94686.78;5044134;28;20206;-72
2022/09/29 05:27:54;;;;;;;2.00;1.40;;;;;;;8.92;100.00;94696.75;5045767;28;20264;-73
2022/09/29 05:30:21;;;;;;;2.37;1.60;;;;;;;8.88;100.00;94691.06;5045974;28;20233;-74
2022/09/29 05:32:49;;;;;;;3.50;3.03;;;;;;;8.97;100.00;94692.19;5042202;28;20194;-72
2022/09/29 05:35:16;;;;;;;8.77;4.50;;;;;;;8.93;100.00;94691.06;5045940;28;20206;-73
2022/09/29 05:37:43;;;;;;;5.43;4.10;;;;;;;8.95;100.00;94693.50;5047044;28;20222;-74
2022/09/29 05:40:10;;;;;;;6.80;5.00;;;;;;;8.99;100.00;94705.38;5040887;28;20206;-74
2022/09/29 05:42:39;;;;;;;3.93;2.87;;;;;;;8.97;100.00;94702.13;5042321;28;20206;-74
2022/09/29 05:45:09;;;;;;;3.67;2.70;;;;;;;8.95;100.00;94697.00;5043449;28;20214;-73
2022/09/29 05:47:36;;;;;;;5.63;2.90;;;;;;;9.15;100.00;94706.28;5043779;28;20226;-74
2022/09/29 05:50:03;;;;;;;4.20;2.77;;;;;;;9.19;100.00;94710.88;5028186;28;20264;-73
2022/09/29 05:52:30;;;;;;;4.93;3.70;;;;;;;9.19;100.00;94707.38;5053893;28;20285;-73
2022/09/29 05:54:57;;;;;;;3.17;2.87;;;;;;;9.13;100.00;94708.41;5040849;28;20206;-75
2022/09/29 05:57:24;;;;;;;3.33;2.47;;;;;;;9.11;100.00;94700.59;5042873;28;20229;-73
2022/09/29 05:59:52;;;;;;;4.50;2.63;;;;;;;9.12;100.00;94699.53;5041055;28;20297;-72
2022/09/29 06:02:19;;;;;;;4.50;3.23;;;;;;;9.10;100.00;94694.41;5040925;28;20293;-73
2022/09/29 06:04:46;;;;;;;4.37;3.27;;;;;;;9.11;100.00;94704.09;5037459;28;20238;-75
2022/09/29 06:07:13;;;;;;;3.77;3.40;;;;;;;9.13;100.00;94701.16;5044705;28;20217;-74
2022/09/29 06:09:41;;;;;;;2.83;2.60;;;;;;;9.06;100.00;94695.19;5046689;28;20203;-73
2022/09/29 06:12:07;;;;;;;13.27;2.97;;;;;;;9.02;100.00;94702.16;5042367;28;20203;-74
2022/09/29 06:14:35;;;;;;;3.50;2.60;;;;;;;8.96;100.00;94690.56;5037954;28;20234;-73
2022/09/29 06:17:03;;;;;;;3.30;2.80;;;;;;;9.01;100.00;94693.31;5044614;28;20233;-73
2022/09/29 06:19:30;;;;;;;3.97;3.57;;;;;;;9.06;100.00;94696.00;5039647;28;20225;-73
2022/09/29 06:21:57;;;;;;;4.03;3.60;;;;;;;9.02;100.00;94689.50;5044870;28;20210;-73
2022/09/29 06:24:24;;;;;;;4.37;3.97;;;;;;;9.02;100.00;94689.50;5034960;28;20267;-73
2022/09/29 06:26:51;;;;;;;4.47;3.60;;;;;;;9.03;100.00;94691.13;5033445;28;20212;-73
2022/09/29 06:29:18;;;;;;;3.30;2.90;;;;;;;9.09;100.00;94695.50;5047301;28;20216;-73
2022/09/29 06:31:46;;;;;;;3.43;2.73;;;;;;;9.10;100.00;94680.94;5038220;28;20195;-73
2022/09/29 06:34:14;;;;;;;4.80;3.23;;;;;;;9.11;100.00;94687.94;5042139;28;20214;-73
2022/09/29 06:39:28;;;;;;;7.93;5.30;;;;;;;9.10;100.00;94691.72;5039112;28;20203;-74
2022/09/29 06:41:55;;;;;;;7.40;4.40;;;;;;;9.13;100.00;94693.06;5038560;28;20213;-73
2022/09/29 06:44:24;;;;;;;7.17;4.53;;;;;;;9.19;100.00;94689.34;5042332;28;20202;-73
2022/09/29 06:46:51;;;;;;;7.33;5.03;;;;;;;9.23;100.00;94687.75;5042704;28;20210;-76
2022/09/29 06:49:21;;;;;;;6.47;5.10;;;;;;;9.23;100.00;94685.06;5042974;28;20214;-73
2022/09/29 06:51:48;;;;;;;8.93;4.90;;;;;;;9.28;100.00;94687.75;5044422;28;20209;-73
2022/09/29 06:54:19;;;;;;;7.40;4.77;;;;;;;9.30;100.00;94682.94;5040932;28;20198;-73
2022/09/29 06:56:47;;;;;;;6.50;4.83;;;;;;;9.37;100.00;94683.50;5045927;28;20202;-73
2022/09/29 06:59:14;;;;;;;4.73;3.80;;;;;;;9.35;100.00;94693.75;5046029;28;20264;-76
2022/09/29 07:01:41;;;;;;;4.23;3.50;;;;;;;9.28;100.00;94695.03;5043282;28;20207;-74
2022/09/29 07:04:09;;;;;;;5.20;4.70;;;;;;;9.31;100.00;94691.81;5040723;28;20222;-72
2022/09/29 07:06:37;;;;;;;4.27;3.87;;;;;;;9.33;100.00;94695.88;5043179;28;20209;-73
2022/09/29 07:09:04;;;;;;;3.80;3.37;;;;;;;9.26;100.00;94687.22;5045551;28;20198;-72
2022/09/29 07:11:31;;;;;;;4.00;2.90;;;;;;;9.25;100.00;94699.06;5041750;28;20205;-73
2022/09/29 07:13:58;;;;;;;3.33;3.00;;;;;;;9.21;100.00;94694.47;5042405;28;20384;-72
2022/09/29 07:16:27;;;;;;;3.63;3.03;;;;;;;9.22;100.00;94698.78;5044754;28;20268;-72
2022/09/29 07:18:54;;;;;;;3.73;2.77;;;;;;;9.26;100.00;94700.69;5041785;28;20233;-74
2022/09/29 07:21:22;;;;;;;2.90;2.60;;;;;;;9.29;100.00;94693.97;5042106;28;20222;-73
2022/09/29 07:23:50;;;;;;;2.90;2.30;;;;;;;9.41;100.00;94697.25;5043923;28;20191;-72
2022/09/29 07:26:17;;;;;;;3.77;2.77;;;;;;;9.49;100.00;94710.22;5031761;28;20242;-71
2022/09/29 07:28:46;;;;;;;4.73;2.63;;;;;;;9.53;100.00;94705.91;5035708;28;20210;-73
2022/09/29 07:31:14;;;;;;;3.80;2.63;;;;;;;9.57;100.00;94698.13;5043689;28;20202;-72
2022/09/29 07:33:42;;;;;;;4.00;2.80;;;;;;;9.57;100.00;94703.50;5045503;28;20288;-73
2022/09/29 07:36:09;;;;;;;7.33;3.20;;;;;;;9.55;100.00;94708.34;5041330;28;20905;-73
2022/09/29 07:38:37;;;;;;;3.00;2.60;;;;;;;9.57;100.00;94703.50;5042418;28;20222;-73
2022/09/29 07:41:07;;;;;;;2.30;1.70;;;;;;;9.59;100.00;94706.75;5041757;28;20212;-73
2022/09/29 07:43:34;;;;;;;2.40;2.00;;;;;;;9.58;100.00;94713.22;5040644;28;20274;-72
2022/09/29 07:46:02;;;;;;;2.97;1.90;;;;;;;9.51;100.00;94718.06;5043468;28;20260;-72
2022/09/29 07:48:30;;;;;;;3.20;2.20;;;;;;;9.47;100.00;94715.06;5037688;28;20218;-72
2022/09/29 07:51:01;;;;;;;2.43;2.23;;;;;;;9.50;100.00;94725.31;5028324;28;20210;-75
2022/09/29 07:53:28;;;;;;;3.27;2.20;;;;;;;9.55;100.00;94725.31;5029359;28;20219;-73
2022/09/29 07:55:56;;;;;;;2.83;2.43;;;;;;;9.50;100.00;94722.63;5038888;28;20210;-72
2022/09/29 07:58:24;;;;;;;2.57;2.30;;;;;;;9.52;100.00;94728.56;5043097;28;20227;-73
2022/09/29 08:00:55;;;;;;;3.83;2.20;;;;;;;9.53;100.00;94729.38;5043029;28;20270;-75
2022/09/29 08:03:24;;;;;;;3.27;2.00;;;;;;;9.53;100.00;94726.69;5032254;28;20210;-75
2022/09/29 08:05:52;;;;;;;2.47;1.90;;;;;;;9.52;100.00;94725.88;5042404;28;20211;-75
2022/09/29 08:08:19;;;;;;;3.50;2.10;;;;;;;9.57;100.00;94727.75;5041964;28;20209;-75
2022/09/29 08:10:46;;;;;;;2.33;2.10;;;;;;;9.58;100.00;94730.19;5042011;28;20210;-75
2022/09/29 08:13:13;;;;;;;2.33;2.00;;;;;;;9.59;100.00;94731.00;5046354;28;20237;-75
2022/09/29 08:15:41;;;;;;;2.70;2.03;;;;;;;9.63;100.00;94742.88;5047944;28;20297;-75
2022/09/29 08:18:08;;;;;;;2.47;2.20;;;;;;;9.64;100.00;94744.50;5047793;28;20218;-75
2022/09/29 08:20:36;;;;;;;3.40;2.20;;;;;;;9.65;100.00;94752.31;5050698;28;20229;-75
2022/09/29 08:23:03;;;;;;;3.23;2.50;;;;;;;9.70;100.00;94756.91;5045448;28;20206;-75
2022/09/29 08:25:30;;;;;;;3.67;2.07;;;;;;;9.75;100.00;94752.38;5039761;28;20304;-75
2022/09/29 08:27:57;;;;;;;1.80;1.60;;;;;;;9.79;100.00;94758.84;5041865;28;20255;-75
2022/09/29 08:30:24;;;;;;;2.07;1.67;;;;;;;9.81;100.00;94761.28;5045963;28;20214;-75
2022/09/29 08:32:53;;;;;;;2.97;1.90;;;;;;;9.83;100.00;94768.03;5048218;28;20205;-75
2022/09/29 08:35:20;;;;;;;1.67;1.50;;;;;;;9.84;100.00;94771.53;5047246;28;20209;-75
2022/09/29 08:37:48;;;;;;;3.07;2.13;;;;;;;9.85;100.00;94773.97;5041819;28;20277;-75
2022/09/29 08:40:15;;;;;;;4.27;2.40;;;;;;;9.87;100.00;94766.41;5043184;28;20217;-75
2022/09/29 08:42:53;;;;;;;4.90;3.00;;;;;;;9.94;100.00;94774.28;5037428;28;20198;-75
2022/09/29 08:45:28;;;;;;;2.70;1.97;;;;;;;10.00;100.00;94769.69;5045663;28;20210;-75
2022/09/29 08:48:06;;;;;;;4.67;2.20;;;;;;;10.02;100.00;94776.47;5047330;28;20201;-75
2022/09/29 08:50:38;;;;;;;2.33;2.00;;;;;;;10.07;100.00;94770.25;5048624;28;20245;-75
2022/09/29 08:53:08;;;;;;;2.00;1.80;;;;;;;10.06;100.00;94779.41;5044015;28;20206;-75
2022/09/29 08:55:45;;;;;;;3.10;1.90;;;;;;;10.00;100.00;94775.09;5046810;28;20263;-75
2022/09/29 08:58:15;;;;;;;1.33;1.23;;;;;;;10.04;100.00;94776.97;5042916;28;20217;-75
2022/09/29 09:00:51;;;;;;;0.97;0.93;;;;;;;10.00;100.00;94775.09;5046230;28;20294;-75
2022/09/29 09:03:56;;;;;;;1.30;1.10;;;;;;;10.06;100.00;94774.03;5039356;28;20218;-75
2022/09/29 09:06:36;;;;;;;1.47;1.20;;;;;;;10.05;100.00;94783.19;5021130;28;20324;-75
2022/09/29 09:09:29;;;;;;;1.63;1.10;;;;;;;10.04;100.00;94781.56;5042886;28;20213;-75
2022/09/29 09:12:08;;;;;;;1.23;1.13;;;;;;;10.10;100.00;94785.91;5033503;28;20261;-77
2022/09/29 09:14:50;;;;;;;1.10;1.00;;;;;;;10.13;100.00;94788.88;5047514;28;20230;-78
2022/09/29 09:17:31;;;;;;;2.83;1.20;;;;;;;10.19;100.00;94785.19;5046247;28;20210;-78
2022/09/29 09:20:11;;;;;;;1.30;1.10;;;;;;;10.29;100.00;94784.41;5056205;28;20238;-78
2022/09/29 09:22:51;;;;;;;1.60;1.03;;;;;;;10.35;100.00;94794.13;5046208;28;20240;-77
2022/09/29 09:25:24;;;;;;;1.73;0.90;;;;;;;10.40;100.00;94791.41;5034791;28;20210;-78
2022/09/29 09:28:02;;;;;;;0.90;0.83;;;;;;;10.41;100.00;94787.63;5047262;28;20293;-77
2022/09/29 09:30:37;;;;;;;1.90;1.00;;;;;;;10.43;100.00;94784.69;5042880;28;20220;-78
2022/09/29 09:33:12;;;;;;;1.10;1.00;;;;;;;10.46;100.00;94790.34;5046762;28;20202;-78
2022/09/29 09:35:45;;;;;;;1.10;1.00;;;;;;;10.55;100.00;94802.22;5047250;28;20231;-75
2022/09/29 09:38:19;;;;;;;1.63;1.10;;;;;;;10.60;100.00;94796.03;5038705;28;20226;-77
2022/09/29 09:40:52;;;;;;;0.87;0.87;;;;;;;10.74;100.00;94796.31;5046392;28;20206;-78
2022/09/29 09:43:24;;;;;;;1.93;1.00;;;;;;;10.83;100.00;94795.53;5041573;28;20206;-78
2022/09/29 09:45:57;;;;;;;1.00;0.90;;;;;;;10.82;100.00;94787.69;5041080;28;20237;-78
2022/09/29 09:48:31;;;;;;;1.30;1.20;;;;;;;10.82;100.00;94782.28;5046040;28;20298;-77
2022/09/29 09:51:02;;;;;;;2.00;1.40;;;;;;;10.92;100.00;94801.19;5047552;28;20252;-76
2022/09/29 09:53:36;;;;;;;3.47;2.33;;;;;;;10.94;100.00;94790.94;5042690;28;20198;-75
2022/09/29 09:56:17;;;;;;;1.00;0.90;;;;;;;11.02;100.00;94798.50;5040750;28;20208;-77
2022/09/29 09:59:03;;;;;;;1.50;1.10;;;;;;;11.06;100.00;94796.84;5045969;28;20221;-78
2022/09/29 10:01:30;;;;;;;1.30;1.20;;;;;;;11.07;100.00;94801.19;5046648;28;20205;-77
2022/09/29 10:03:59;;;;;;;1.60;1.50;;;;;;;11.02;100.00;94790.41;5043946;28;20225;-77
2022/09/29 10:06:27;;;;;;;1.87;1.27;;;;;;;11.03;100.00;94786.63;5038032;28;20214;-77
2022/09/29 10:08:56;;;;;;;2.47;1.20;;;;;;;11.08;100.00;94777.69;5042386;28;20229;-77
2022/09/29 10:11:25;;;;;;;2.10;1.20;;;;;;;11.13;100.00;94791.22;5040276;28;20206;-78
2022/09/29 10:13:59;;;;;;;1.57;1.20;;;;;;;11.08;100.00;94796.59;5044680;28;20253;-77
2022/09/29 10:16:33;;;;;;;2.03;1.20;;;;;;;10.98;100.00;94792.81;5043627;28;20237;-77
2022/09/29 10:19:01;;;;;;;1.20;1.07;;;;;;;11.05;100.00;94789.88;5039621;28;20240;-77
2022/09/29 10:21:39;;;;;;;2.50;1.20;;;;;;;11.09;100.00;94799.03;5043360;28;20225;-77
2022/09/29 10:24:22;;;;;;;1.87;1.27;;;;;;;11.01;100.00;94783.38;5044961;28;20205;-77
2022/09/29 10:26:54;;;;;;;1.70;1.40;;;;;;;11.11;100.00;94796.88;5039802;28;20212;-77
2022/09/29 10:29:29;;;;;;;1.50;1.40;;;;;;;11.16;100.00;94802.25;5044779;28;20273;-77
2022/09/29 10:32:05;;;;;;;1.10;1.07;;;;;;;11.21;100.00;94798.75;5039854;28;20209;-78
2022/09/29 10:34:34;;;;;;;1.87;0.97;;;;;;;11.24;100.00;94809.00;5044913;28;20293;-77
2022/09/29 10:37:03;;;;;;;1.93;1.00;;;;;;;11.19;100.00;94799.03;5044995;28;20233;-77
2022/09/29 10:39:42;;;;;;;1.23;1.00;;;;;;;11.17;100.00;94812.00;5041202;28;20237;-77
2022/09/29 10:42:22;;;;;;;1.20;1.10;;;;;;;11.23;100.00;94801.97;5046663;28;20301;-77
2022/09/29 10:44:54;;;;;;;1.20;1.10;;;;;;;11.30;100.00;94792.53;5044726;28;20260;-77
2022/09/29 10:47:23;;;;;;;3.03;2.10;;;;;;;11.30;100.00;94806.06;5045318;28;20218;-77
2022/09/29 10:50:09;;;;;;;1.43;1.27;;;;;;;11.29;100.00;94804.44;5040913;28;20217;-77
2022/09/29 10:52:36;;;;;;;1.00;0.90;;;;;;;11.32;100.00;94803.88;5044311;28;20206;-77
2022/09/29 10:55:06;;;;;;;1.33;1.00;;;;;;;11.30;100.00;94800.66;5038398;28;20291;-77
2022/09/29 10:57:36;;;;;;;1.40;1.23;;;;;;;11.32;100.00;94806.56;5044944;28;20198;-77
2022/09/29 11:00:04;;;;;;;1.80;1.03;;;;;;;11.47;100.00;94794.94;5043447;28;20226;-77
2022/09/29 11:02:35;;;;;;;1.00;0.90;;;;;;;11.52;100.00;94803.03;5040917;28;20236;-77
2022/09/29 11:05:05;;;;;;;1.00;0.90;;;;;;;11.54;100.00;94797.34;5041303;28;20217;-77
2022/09/29 11:07:33;;;;;;;0.80;0.80;;;;;;;11.59;100.00;94808.16;5058350;28;20222;-77
2022/09/29 11:10:01;;;;;;;1.20;1.10;;;;;;;11.64;100.00;94816.25;5037969;28;20203;-77
2022/09/29 11:12:33;;;;;;;1.43;0.90;;;;;;;11.57;100.00;94804.94;5042544;28;20272;-77
2022/09/29 11:15:01;;;;;;;1.77;1.00;;;;;;;11.64;100.00;94805.44;5036763;28;20292;-77
2022/09/29 11:17:30;;;;;;;1.80;1.47;;;;;;;11.62;100.00;94813.03;5041673;28;20203;-77
2022/09/29 11:20:01;;;;;;;2.73;1.00;;;;;;;11.67;100.00;94810.28;5042384;28;20228;-77
2022/09/29 11:22:50;;;;;;;1.10;1.10;;;;;;;11.72;100.00;94813.81;5045122;28;20210;-77
2022/09/29 11:25:30;;;;;;;1.10;1.00;;;;;;;11.75;100.00;94817.88;5044626;28;20213;-77
2022/09/29 11:28:19;;;;;;;1.23;0.80;;;;;;;11.78;100.00;94822.75;5040486;28;20222;-77
2022/09/29 11:31:01;;;;;;;1.13;1.03;;;;;;;11.77;100.00;94820.31;5042014;28;20257;-77
2022/09/29 11:33:41;;;;;;;1.07;0.90;;;;;;;11.91;100.00;94814.03;5034314;28;20256;-77
2022/09/29 11:36:22;;;;;;;0.70;0.70;;;;;;;11.98;100.00;94822.69;5046653;28;20228;-77
2022/09/29 11:39:03;;;;;;;0.67;0.67;;;;;;;11.95;100.00;94817.81;5048564;28;20218;-77
2022/09/29 11:41:55;;;;;;;1.40;1.30;;;;;;;11.95;100.00;94822.41;5041894;28;20214;-77
2022/09/29 11:44:57;;;;;;;0.83;0.70;;;;;;;11.89;100.00;94824.34;5046877;28;20213;-77
2022/09/29 11:47:54;;;;;;;0.70;0.70;;;;;;;11.75;100.00;94820.56;5041409;28;20205;-77
2022/09/29 11:50:35;;;;;;;0.60;0.60;;;;;;;11.76;100.00;94811.38;5048333;28;20202;-77
2022/09/29 11:53:19;;;;;;;0.70;0.70;;;;;;;11.91;100.00;94808.63;5043029;28;20206;-77